Aeroporto :
LOGIN :

Iscrizione | Disclaimer

   EN    FR    IT 

 










Sommario :    VFR   VFR Marginale   IFR   IFR Intensivo   IFR Molto Intensivo
Visibilità : 
Base nubi : 
>= 8 km
>= 3000ft
5 / 8 km
1000 / 3000 ft
1500m / 5 km
500 / 1000 ft
800 / 1500m
200 / 500 ft
< 800m
< 200 ft
Simboli :   Temporali  Nebbia  Neve Forte  Precipitazioni Forti  Vento > 20 kt
SIGMETs :   Varie  Temporali  Ghiacco  Turbolenza  Onda orograficha  Ceneri Vulcaniche







- Altitudine del aeroporto : 83 ft
- Codice IATA : LHR
- Carte del aeroporto


EGLL - London Heathrow

ULTIMO METAR :
  • 220250Z AUTO 24009KT 9999 -RA NCD 12/09 Q1019

METARs OBSOLETI :
  • 220220Z AUTO 24008KT 9999 NCD 11/08 Q1019 NOSIG
  • 220150Z AUTO 23007KT 9999 NCD 11/08 Q1019 NOSIG
  • 220120Z AUTO 23008KT 9999 NCD 11/08 Q1019 NOSIG
  • 220050Z AUTO 24008KT 9999 NCD 11/08 Q1019 NOSIG
  • 220020Z AUTO 24009KT 9999 NCD 11/08 Q1019 NOSIG
  • 212350Z AUTO 24008KT 9999 NCD 11/08 Q1018 NOSIG

TAF TAF EGLL
Valido dal 22 a 00 ore il 23 a 06 ore UTC


212259Z 2200/2306 25010KT 9999 FEW045
BECMG 2213/2216 6000 -RA
BECMG 2214/2217 09006KT
TEMPO 2215/2306 BKN007
PROB40
TEMPO 2216/2306 3000 RADZ BKN004
BECMG 2302/2305 03010KT
Nessun NOTAM noto per questo aeroporto.
3 SIGMETs conosciuti per la FIR London (EGTT) :
 
Turbolenza severa
EGTT SIGMET 10 VALID 212300/220300 EGRR
EGTT LONDON FIR SEV TURB FCST WI N5500 W00530 - N5500 W00122 - N5223 W00100 - N5346 W00530 - N5500 W00530 FL200/380 MOV NE 20KT NC=
Turbolenza severa
EGTT SIGMET 02 VALID 220300/220600 EGRR
EGTT LONDON FIR SEV TURB FCST WI N5314 E00031 - N5500 W00527 - N5500 E00019 - N5314 E00031 FL200/380 MOV NE 25KT NC=
Forte formazione di ghiaccio
EGTT SIGMET 01 VALID 220245/220600 EGRR
EGTT LONDON FIR SEV ICE FCST SW OF LINE N5153 W00621 - N4938 W00353 FL080/160 MOV ENE 35KT NC=



MetMap, La meteo Aeronautica in un colpo d'occhio ! - Copyright ORBIFLY Dicembre 2007 - Disclaimer

ORBIFLY MET'MAP TEAM :

Programmazione e sviluppo : Alexandra Zaïnal
Concezione e sviluppo : Baudouin d'Aumeries
Co-Programmazione e sviluppo : Marc-Olivier Méhu
Supporto tecnico e logistico : Manuel Goepfert
Aiuto per la traduzione : Arnaldo La Scala

Contatto : metmap@orbifly.com




FONTI E CREDITI :

   NOAA